Time;durP1;ratioP1;P1;durP2;ratioP2;P2;SDS_P1;SDS_P2;PMS_P1;PMS_P2;Temp;Humidity;BMP_temperature;BMP_pressure;BME280_temperature;BME280_humidity;BME280_pressure;Samples;Min_cycle;Max_cycle;Signal;HPM_P1;HPM_P2
2023/06/06 00:01:56;;;;;;;5.37;4.63;;;16.90;99.90;;;;;;5028160;28;20413;-70
2023/06/06 00:04:22;;;;;;;5.23;4.80;;;17.00;99.90;;;;;;5028998;28;20285;-70
2023/06/06 00:06:48;;;;;;;5.30;4.80;;;17.00;99.90;;;;;;5029018;28;20198;-70
2023/06/06 00:09:14;;;;;;;5.63;4.67;;;17.00;99.90;;;;;;5024384;28;20667;-70
2023/06/06 00:11:39;;;;;;;6.23;4.90;;;16.90;99.90;;;;;;5028356;28;20195;-70
2023/06/06 00:14:09;;;;;;;7.33;4.60;;;16.90;99.90;;;;;;5029048;28;20420;-70
2023/06/06 00:16:35;;;;;;;8.30;5.30;;;16.90;99.90;;;;;;5026622;28;20626;-70
2023/06/06 00:19:03;;;;;;;7.03;6.33;;;16.90;99.90;;;;;;5008605;28;20492;-70
2023/06/06 00:21:32;;;;;;;5.77;5.20;;;16.80;99.90;;;;;;5008993;28;20477;-70
2023/06/06 00:23:59;;;;;;;8.80;5.67;;;16.80;99.90;;;;;;5009026;28;20417;-70
2023/06/06 00:26:26;;;;;;;7.20;5.80;;;16.80;99.90;;;;;;5009385;28;20410;-70
2023/06/06 00:28:53;;;;;;;11.07;6.77;;;16.70;99.90;;;;;;5039343;28;20475;-70
2023/06/06 00:31:19;;;;;;;7.70;5.27;;;16.60;99.90;;;;;;5037268;28;20504;-71
2023/06/06 00:33:45;;;;;;;6.13;5.50;;;16.60;99.90;;;;;;5028795;28;20516;-70
2023/06/06 00:36:11;;;;;;;6.03;5.43;;;16.60;99.90;;;;;;5029122;28;20210;-70
2023/06/06 00:38:36;;;;;;;7.63;5.80;;;16.60;99.90;;;;;;5028937;28;20255;-70
2023/06/06 00:41:02;;;;;;;8.53;6.00;;;16.50;99.90;;;;;;5029074;28;20501;-71
2023/06/06 00:43:28;;;;;;;7.00;5.87;;;16.50;99.90;;;;;;5028177;28;20182;-70
2023/06/06 00:45:53;;;;;;;7.23;5.23;;;16.50;99.90;;;;;;5029091;28;20197;-69
2023/06/06 00:48:20;;;;;;;8.43;5.80;;;16.50;99.90;;;;;;5028812;28;20206;-70
2023/06/06 00:50:47;;;;;;;7.77;6.40;;;16.50;99.90;;;;;;5028876;28;20179;-70
2023/06/06 00:53:13;;;;;;;13.40;6.50;;;16.50;99.90;;;;;;5027913;28;20963;-70
2023/06/06 00:55:41;;;;;;;7.67;6.30;;;16.50;99.90;;;;;;5028814;28;20465;-70
2023/06/06 00:58:08;;;;;;;9.90;5.97;;;16.50;99.90;;;;;;5028747;28;21131;-70
2023/06/06 01:00:36;;;;;;;7.80;5.40;;;16.50;99.90;;;;;;5027515;28;20908;-70
2023/06/06 01:03:03;;;;;;;7.10;6.40;;;16.40;99.90;;;;;;5027854;28;20750;-70
2023/06/06 01:05:29;;;;;;;8.00;6.33;;;16.40;99.90;;;;;;5028629;28;20436;-70
2023/06/06 01:07:56;;;;;;;7.40;5.97;;;16.40;99.90;;;;;;5028590;28;20821;-70
2023/06/06 01:10:23;;;;;;;7.00;5.97;;;16.40;99.90;;;;;;5027490;28;20417;-70
2023/06/06 01:13:18;;;;;;;9.33;5.90;;;16.30;99.90;;;;;;5026927;28;20445;-70
2023/06/06 01:16:19;;;;;;;8.13;6.07;;;16.20;99.90;;;;;;5028466;28;20463;-70
2023/06/06 01:18:48;;;;;;;10.47;6.47;;;16.20;99.90;;;;;;5006299;28;20491;-71
2023/06/06 01:21:15;;;;;;;6.43;5.83;;;16.10;99.90;;;;;;5024137;28;20906;-70
2023/06/06 01:23:43;;;;;;;7.10;5.80;;;16.00;99.90;;;;;;5027942;28;20552;-70
2023/06/06 01:26:10;;;;;;;8.03;6.20;;;16.00;99.90;;;;;;5028421;28;20424;-70
2023/06/06 01:28:36;;;;;;;8.20;6.20;;;16.00;99.90;;;;;;5041719;28;20475;-71
2023/06/06 01:31:02;;;;;;;11.77;6.93;;;15.90;99.90;;;;;;5042303;28;20798;-70
2023/06/06 01:33:38;;;;;;;7.30;5.90;;;15.90;99.90;;;;;;5031456;28;20241;-70
2023/06/06 01:36:23;;;;;;;7.67;6.93;;;15.90;99.90;;;;;;5032321;28;20459;-70
2023/06/06 01:39:04;;;;;;;7.83;6.33;;;15.80;99.90;;;;;;5032253;28;20433;-70
2023/06/06 01:41:32;;;;;;;7.00;6.30;;;15.80;99.90;;;;;;5030966;28;20428;-70
2023/06/06 01:44:00;;;;;;;7.87;6.90;;;15.80;99.90;;;;;;5031944;28;20405;-70
2023/06/06 01:46:27;;;;;;;8.73;6.87;;;15.70;99.90;;;;;;5032100;28;20409;-70
2023/06/06 01:48:54;;;;;;;6.53;5.70;;;15.80;99.90;;;;;;5032018;28;20432;-70
2023/06/06 01:51:20;;;;;;;8.10;6.60;;;15.70;99.90;;;;;;5031544;28;20420;-70
2023/06/06 01:53:45;;;;;;;8.53;5.90;;;15.70;99.90;;;;;;5031804;28;20417;-70
2023/06/06 01:56:14;;;;;;;6.70;6.03;;;15.70;99.90;;;;;;5032002;28;20222;-70
2023/06/06 01:58:42;;;;;;;9.40;6.80;;;15.70;99.90;;;;;;5031814;28;20198;-70
2023/06/06 02:01:08;;;;;;;9.63;7.60;;;15.70;99.90;;;;;;5031932;28;20424;-70
2023/06/06 02:03:34;;;;;;;10.00;6.50;;;15.70;99.90;;;;;;5031045;28;20409;-70
2023/06/06 02:06:01;;;;;;;8.47;6.40;;;15.70;99.90;;;;;;5031592;28;20432;-70
2023/06/06 02:08:27;;;;;;;9.63;7.30;;;15.60;99.90;;;;;;5031639;28;20437;-70
2023/06/06 02:10:53;;;;;;;8.13;7.23;;;15.60;99.90;;;;;;5032021;28;20753;-70
2023/06/06 02:13:19;;;;;;;9.30;6.40;;;15.50;99.90;;;;;;5030097;28;20178;-70
2023/06/06 02:15:44;;;;;;;10.53;5.97;;;15.50;99.90;;;;;;5030308;28;20475;-70
2023/06/06 02:18:10;;;;;;;8.67;6.50;;;15.50;99.90;;;;;;5031394;28;20197;-70
2023/06/06 02:20:36;;;;;;;9.37;6.63;;;15.40;99.90;;;;;;5031609;28;20265;-70
2023/06/06 02:23:01;;;;;;;7.10;6.33;;;15.50;99.90;;;;;;5029290;28;20182;-69
2023/06/06 02:25:27;;;;;;;7.70;6.30;;;15.40;99.90;;;;;;5031459;28;20178;-70
2023/06/06 02:27:53;;;;;;;8.83;7.60;;;15.40;99.90;;;;;;5038635;28;20196;-71
2023/06/06 02:30:19;;;;;;;7.57;6.60;;;15.30;99.90;;;;;;5048557;28;20190;-70
2023/06/06 02:32:45;;;;;;;7.43;6.13;;;15.30;99.90;;;;;;5030458;28;20420;-71
2023/06/06 02:35:11;;;;;;;11.10;6.43;;;15.30;99.90;;;;;;5031022;28;20244;-70
2023/06/06 02:37:36;;;;;;;9.47;7.23;;;15.20;99.90;;;;;;5030940;28;20203;-71
2023/06/06 02:40:08;;;;;;;11.67;6.67;;;15.20;99.90;;;;;;5029876;28;20229;-70
2023/06/06 02:42:36;;;;;;;8.13;6.17;;;15.30;99.90;;;;;;5030451;28;20177;-70
2023/06/06 02:45:02;;;;;;;9.00;7.40;;;15.30;99.90;;;;;;5029646;28;20479;-70
2023/06/06 02:47:27;;;;;;;8.43;6.70;;;15.20;99.90;;;;;;5030833;28;20437;-70
2023/06/06 02:49:53;;;;;;;8.90;6.93;;;15.20;99.90;;;;;;5030982;28;20206;-69
2023/06/06 02:52:20;;;;;;;7.47;6.73;;;15.20;99.90;;;;;;5030359;28;20173;-69
2023/06/06 02:54:46;;;;;;;12.63;7.13;;;15.10;99.90;;;;;;5030656;28;20631;-69
2023/06/06 02:57:11;;;;;;;9.83;6.60;;;15.10;99.90;;;;;;5030691;28;20470;-70
2023/06/06 02:59:37;;;;;;;8.60;7.23;;;15.00;99.90;;;;;;5030798;28;20178;-70
2023/06/06 03:02:03;;;;;;;8.10;7.07;;;15.00;99.90;;;;;;5030079;28;20183;-70
2023/06/06 03:04:29;;;;;;;8.90;6.53;;;15.00;99.90;;;;;;5030342;28;20644;-70
2023/06/06 03:06:55;;;;;;;11.17;7.27;;;15.00;99.90;;;;;;5030881;28;20544;-70
2023/06/06 03:09:22;;;;;;;7.90;6.20;;;14.90;99.90;;;;;;5030669;28;20185;-70
2023/06/06 03:11:47;;;;;;;8.37;6.90;;;14.80;99.90;;;;;;5029873;28;20424;-70
2023/06/06 03:14:14;;;;;;;10.50;7.07;;;14.70;99.90;;;;;;5030204;28;20417;-70
2023/06/06 03:16:40;;;;;;;9.63;6.90;;;14.70;99.90;;;;;;5027503;28;20210;-70
2023/06/06 03:19:06;;;;;;;9.23;7.03;;;14.70;99.90;;;;;;5029311;28;20420;-70
2023/06/06 03:21:33;;;;;;;9.47;7.33;;;14.70;99.90;;;;;;5029614;28;20907;-70
2023/06/06 03:24:00;;;;;;;11.93;7.97;;;14.60;99.90;;;;;;5029962;28;20425;-70
2023/06/06 03:26:29;;;;;;;12.30;7.70;;;14.50;99.90;;;;;;5030243;28;20444;-70
2023/06/06 03:28:56;;;;;;;10.17;7.53;;;14.40;99.90;;;;;;5046185;28;20412;-70
2023/06/06 03:31:23;;;;;;;10.77;6.90;;;14.30;99.90;;;;;;5038128;28;20428;-70
2023/06/06 03:33:52;;;;;;;9.27;6.80;;;14.40;99.90;;;;;;5029796;28;20445;-70
2023/06/06 03:36:19;;;;;;;10.37;6.67;;;14.30;99.90;;;;;;5030075;28;20484;-70
2023/06/06 03:38:45;;;;;;;8.67;6.83;;;14.30;99.90;;;;;;5029916;28;20528;-70
2023/06/06 03:41:11;;;;;;;9.60;7.13;;;14.30;99.90;;;;;;5029908;28;20488;-71
2023/06/06 03:43:37;;;;;;;10.00;7.40;;;14.40;99.90;;;;;;5029005;28;20203;-70
2023/06/06 03:46:03;;;;;;;13.27;8.10;;;14.40;99.90;;;;;;5029993;28;20413;-70
2023/06/06 03:48:29;;;;;;;9.33;7.20;;;14.40;99.90;;;;;;5029787;28;20797;-70
2023/06/06 03:50:54;;;;;;;9.10;6.83;;;14.30;99.90;;;;;;5029677;28;20232;-70
2023/06/06 03:53:20;;;;;;;11.47;7.97;;;14.30;99.90;;;;;;5027906;28;20659;-70
2023/06/06 03:55:46;;;;;;;7.23;6.47;;;14.30;99.90;;;;;;5029605;28;20229;-70
2023/06/06 03:58:15;;;;;;;13.40;7.30;;;14.30;99.90;;;;;;5029551;28;20183;-70
2023/06/06 04:00:43;;;;;;;9.40;7.40;;;14.30;99.90;;;;;;5029617;28;20414;-70
2023/06/06 04:03:09;;;;;;;12.40;7.67;;;14.20;99.90;;;;;;5028705;28;20397;-70
2023/06/06 04:05:35;;;;;;;10.30;7.20;;;14.30;99.90;;;;;;5029272;28;20847;-70
2023/06/06 04:08:01;;;;;;;10.90;7.60;;;14.30;99.90;;;;;;5029312;28;20436;-70
2023/06/06 04:10:26;;;;;;;11.40;7.70;;;14.40;99.90;;;;;;5029527;28;20236;-70
2023/06/06 04:12:52;;;;;;;12.80;7.87;;;14.30;99.90;;;;;;5028629;28;20444;-70
2023/06/06 04:15:18;;;;;;;11.20;7.70;;;14.30;99.90;;;;;;5029168;28;20206;-70
2023/06/06 04:17:44;;;;;;;10.30;8.20;;;14.40;99.90;;;;;;5027823;28;20190;-70
2023/06/06 04:20:10;;;;;;;14.63;8.50;;;14.30;99.90;;;;;;5029207;28;20483;-70
2023/06/06 04:22:36;;;;;;;9.40;7.90;;;14.30;99.90;;;;;;5028643;28;20191;-70
2023/06/06 04:25:02;;;;;;;9.27;7.67;;;14.20;99.90;;;;;;5028827;28;20943;-70
2023/06/06 04:27:28;;;;;;;13.70;7.80;;;14.30;99.90;;;;;;5032910;28;20247;-70
2023/06/06 04:29:57;;;;;;;13.70;8.77;;;14.30;99.90;;;;;;5049058;28;20424;-70
2023/06/06 04:32:23;;;;;;;12.20;7.83;;;14.40;99.90;;;;;;5028599;28;20409;-70
2023/06/06 04:34:51;;;;;;;9.90;8.30;;;14.40;99.90;;;;;;5027691;28;20902;-70
2023/06/06 04:37:20;;;;;;;9.83;7.60;;;14.50;99.90;;;;;;5028720;28;20461;-70
2023/06/06 04:39:52;;;;;;;12.73;8.90;;;14.50;99.90;;;;;;5029014;28;20409;-70
2023/06/06 04:42:19;;;;;;;11.17;8.33;;;14.50;99.90;;;;;;5022068;28;20582;-70
2023/06/06 04:44:46;;;;;;;11.93;8.20;;;14.50;99.90;;;;;;5028160;28;20500;-70
2023/06/06 04:47:12;;;;;;;11.00;8.23;;;14.50;99.90;;;;;;5027408;28;20498;-70
2023/06/06 04:49:43;;;;;;;10.90;8.77;;;14.50;99.90;;;;;;5026869;28;20575;-71
2023/06/06 04:52:14;;;;;;;14.93;8.10;;;14.60;99.90;;;;;;5026119;28;20793;-69
2023/06/06 04:54:40;;;;;;;10.70;8.83;;;14.60;99.90;;;;;;5021655;28;20433;-69
2023/06/06 04:57:15;;;;;;;12.60;8.70;;;14.60;99.90;;;;;;5026459;28;20482;-70
2023/06/06 04:59:41;;;;;;;9.63;7.90;;;14.70;99.90;;;;;;5026016;28;20942;-70
2023/06/06 05:02:07;;;;;;;14.40;8.43;;;14.70;99.90;;;;;;5027886;28;20437;-70
2023/06/06 05:04:33;;;;;;;10.67;7.80;;;14.80;99.90;;;;;;5026034;28;20567;-69
2023/06/06 05:06:59;;;;;;;12.50;8.93;;;14.80;99.90;;;;;;5027894;28;20222;-69
2023/06/06 05:09:26;;;;;;;10.83;8.57;;;14.90;99.90;;;;;;5028278;28;20538;-70
2023/06/06 05:11:52;;;;;;;15.87;10.40;;;15.00;99.90;;;;;;5027187;28;20994;-69
2023/06/06 05:14:24;;;;;;;11.87;9.30;;;15.10;99.90;;;;;;5028324;28;20745;-69
2023/06/06 05:16:53;;;;;;;9.47;8.17;;;15.10;99.90;;;;;;5017223;28;20457;-69
2023/06/06 05:19:20;;;;;;;12.20;8.77;;;15.10;99.90;;;;;;5009787;28;20414;-70
2023/06/06 05:21:47;;;;;;;12.10;8.60;;;15.30;99.90;;;;;;5008213;28;20410;-69
2023/06/06 05:24:13;;;;;;;13.40;9.23;;;15.40;99.90;;;;;;5008135;28;20956;-69
2023/06/06 05:26:40;;;;;;;11.90;9.40;;;15.40;99.90;;;;;;5008762;28;20430;-68
2023/06/06 05:29:05;;;;;;;12.80;9.77;;;15.50;99.90;;;;;;5043227;28;20420;-70
2023/06/06 05:31:33;;;;;;;12.03;8.33;;;15.60;99.90;;;;;;5035015;28;20455;-70
2023/06/06 05:33:59;;;;;;;10.80;9.23;;;15.70;99.90;;;;;;5026123;28;20179;-69
2023/06/06 05:36:25;;;;;;;12.60;8.73;;;15.80;99.90;;;;;;5022100;28;20973;-69
2023/06/06 05:38:51;;;;;;;12.00;8.47;;;15.80;99.90;;;;;;5025856;28;20424;-69
2023/06/06 05:41:18;;;;;;;12.17;9.57;;;15.80;99.90;;;;;;5024819;28;20189;-69
2023/06/06 05:43:47;;;;;;;17.57;9.53;;;15.90;99.90;;;;;;5022047;28;20437;-69
2023/06/06 05:46:13;;;;;;;15.80;9.57;;;16.00;99.90;;;;;;5003296;28;20425;-70
2023/06/06 05:48:40;;;;;;;11.23;9.30;;;16.10;99.90;;;;;;5023073;28;20941;-70
2023/06/06 05:51:07;;;;;;;12.17;9.20;;;16.20;99.90;;;;;;5019129;28;20466;-69
2023/06/06 05:53:33;;;;;;;11.47;9.37;;;16.40;99.90;;;;;;5022828;28;20424;-69
2023/06/06 05:55:58;;;;;;;13.77;9.97;;;16.50;99.90;;;;;;5023772;28;20531;-69
2023/06/06 05:58:24;;;;;;;15.50;10.27;;;16.70;99.90;;;;;;5021094;28;20289;-69
2023/06/06 06:00:50;;;;;;;16.07;9.60;;;16.90;99.90;;;;;;5022574;28;20429;-70
2023/06/06 06:03:16;;;;;;;16.13;10.30;;;17.00;99.90;;;;;;5025078;28;20182;-70
2023/06/06 06:05:42;;;;;;;11.60;8.90;;;17.10;99.90;;;;;;5026087;28;20436;-68
2023/06/06 06:08:08;;;;;;;11.70;8.90;;;17.20;99.90;;;;;;5026060;28;20925;-68
2023/06/06 06:10:37;;;;;;;14.83;8.90;;;17.40;99.90;;;;;;5026208;28;20885;-69
2023/06/06 06:13:05;;;;;;;13.63;9.07;;;17.50;99.90;;;;;;5024518;28;20221;-70
2023/06/06 06:15:31;;;;;;;18.47;9.67;;;17.60;99.90;;;;;;5027518;28;20484;-69
2023/06/06 06:17:57;;;;;;;11.07;8.90;;;17.80;99.90;;;;;;5026253;28;20472;-70
2023/06/06 06:20:23;;;;;;;11.53;9.13;;;17.80;99.90;;;;;;5020344;28;20960;-69
2023/06/06 06:22:49;;;;;;;11.57;9.47;;;17.90;99.90;;;;;;5020895;28;20171;-69
2023/06/06 06:25:16;;;;;;;12.73;9.90;;;17.90;99.90;;;;;;5020807;28;20167;-69
2023/06/06 06:27:43;;;;;;;11.67;9.47;;;18.10;99.90;;;;;;5024092;28;21095;-69
2023/06/06 06:30:10;;;;;;;12.43;9.70;;;18.10;99.90;;;;;;5049860;28;20766;-69
2023/06/06 06:32:41;;;;;;;11.83;9.17;;;18.20;99.90;;;;;;5027458;28;20425;-71
2023/06/06 06:35:08;;;;;;;13.70;9.50;;;18.30;99.90;;;;;;5026695;28;20425;-69
2023/06/06 06:37:37;;;;;;;14.20;10.90;;;18.30;99.90;;;;;;5028484;28;20452;-68
2023/06/06 06:40:09;;;;;;;16.20;10.47;;;18.40;99.90;;;;;;5030885;28;20416;-70
2023/06/06 06:42:43;;;;;;;12.20;9.13;;;18.50;99.90;;;;;;5027066;28;20421;-69
2023/06/06 06:45:14;;;;;;;14.90;9.93;;;18.50;99.90;;;;;;5024729;28;20409;-70
2023/06/06 06:47:41;;;;;;;12.10;10.07;;;18.60;99.90;;;;;;5030594;28;20424;-68
2023/06/06 06:50:08;;;;;;;14.33;9.43;;;18.60;99.90;;;;;;5031039;28;20409;-69
2023/06/06 06:52:35;;;;;;;12.53;9.70;;;18.70;99.90;;;;;;5030279;28;20405;-69
2023/06/06 06:55:02;;;;;;;15.00;10.40;;;18.70;99.90;;;;;;5028888;28;20406;-69
2023/06/06 06:57:28;;;;;;;13.37;9.63;;;18.70;99.90;;;;;;5030708;28;20965;-69
2023/06/06 06:59:58;;;;;;;16.73;11.30;;;18.50;99.90;;;;;;5030100;28;20433;-69
2023/06/06 07:02:26;;;;;;;12.77;10.23;;;18.50;99.90;;;;;;5025080;28;20498;-69
2023/06/06 07:04:53;;;;;;;15.37;10.13;;;18.40;99.90;;;;;;5022853;28;20434;-69
2023/06/06 07:07:20;;;;;;;15.60;10.27;;;18.30;99.90;;;;;;5019102;28;20899;-69
2023/06/06 07:09:46;;;;;;;13.17;10.00;;;18.30;99.90;;;;;;5021075;28;20456;-68
2023/06/06 07:12:12;;;;;;;13.80;10.37;;;18.30;99.90;;;;;;5017367;28;20438;-69
2023/06/06 07:14:39;;;;;;;14.67;10.33;;;18.30;99.90;;;;;;5019420;28;20433;-69
2023/06/06 07:17:07;;;;;;;15.23;9.67;;;18.30;99.90;;;;;;5020984;28;20523;-70
2023/06/06 07:19:33;;;;;;;16.20;10.07;;;18.30;99.90;;;;;;5027221;28;20892;-69
2023/06/06 07:21:59;;;;;;;13.10;8.80;;;18.40;99.90;;;;;;5027521;28;20429;-69
2023/06/06 07:24:24;;;;;;;15.83;10.07;;;18.40;99.90;;;;;;5026696;28;20882;-69
2023/06/06 07:26:51;;;;;;;13.17;9.97;;;18.50;99.90;;;;;;5028070;28;20266;-69
2023/06/06 07:29:18;;;;;;;18.83;11.30;;;18.50;99.90;;;;;;5046996;28;20658;-69
2023/06/06 07:31:44;;;;;;;11.77;9.27;;;18.60;99.90;;;;;;5033172;28;20417;-69
2023/06/06 07:34:10;;;;;;;13.33;10.40;;;18.60;99.90;;;;;;5029540;28;20786;-69
2023/06/06 07:36:38;;;;;;;14.10;10.07;;;18.70;99.90;;;;;;5028581;28;20548;-69
2023/06/06 07:39:04;;;;;;;15.13;10.00;;;18.70;99.90;;;;;;5029882;28;20413;-69
2023/06/06 07:41:30;;;;;;;12.77;10.70;;;18.80;99.90;;;;;;5029250;28;20508;-69
2023/06/06 07:43:56;;;;;;;12.17;10.13;;;18.80;99.90;;;;;;5029628;28;20512;-69
2023/06/06 07:46:22;;;;;;;15.00;9.73;;;18.90;99.90;;;;;;5029781;28;20723;-69
2023/06/06 07:48:48;;;;;;;13.90;10.53;;;18.90;99.90;;;;;;5029608;28;20445;-69
2023/06/06 07:51:14;;;;;;;16.30;10.17;;;19.00;99.90;;;;;;5029557;28;20466;-69
2023/06/06 07:53:39;;;;;;;13.37;10.67;;;19.00;99.90;;;;;;5027619;28;20214;-69
2023/06/06 07:56:06;;;;;;;13.10;10.20;;;19.00;99.90;;;;;;5029586;28;20225;-69
2023/06/06 07:58:41;;;;;;;15.50;10.77;;;19.00;99.90;;;;;;5029633;28;20543;-69
2023/06/06 08:01:11;;;;;;;16.10;11.30;;;18.90;99.90;;;;;;5029605;28;20417;-69
2023/06/06 08:03:37;;;;;;;15.47;9.93;;;18.90;99.90;;;;;;5028759;28;20429;-69
2023/06/06 08:06:03;;;;;;;12.87;10.73;;;18.90;99.90;;;;;;5029417;28;20854;-69
2023/06/06 08:08:28;;;;;;;17.13;10.40;;;19.00;99.90;;;;;;5029307;28;20486;-69
2023/06/06 08:10:54;;;;;;;17.43;10.33;;;19.00;99.90;;;;;;5028385;28;20444;-69
2023/06/06 08:13:20;;;;;;;13.50;11.93;;;19.00;99.90;;;;;;5028501;28;20190;-70
2023/06/06 08:15:46;;;;;;;13.80;9.73;;;19.00;99.90;;;;;;5029433;28;20206;-69
2023/06/06 08:18:15;;;;;;;16.97;10.83;;;19.10;99.90;;;;;;5029185;28;20433;-69
2023/06/06 08:20:41;;;;;;;15.30;11.43;;;19.10;99.90;;;;;;5029434;28;20437;-69
2023/06/06 08:23:07;;;;;;;15.47;11.50;;;19.20;99.90;;;;;;5028320;28;20801;-70
2023/06/06 08:25:37;;;;;;;15.73;12.03;;;19.20;99.90;;;;;;5029531;28;20179;-69
2023/06/06 08:28:03;;;;;;;17.97;10.67;;;19.20;99.90;;;;;;5037873;28;20714;-69
2023/06/06 08:30:29;;;;;;;14.47;11.53;;;19.30;99.90;;;;;;5045272;28;20471;-69
2023/06/06 08:32:54;;;;;;;13.93;11.27;;;19.40;99.90;;;;;;5028502;28;20197;-69
2023/06/06 08:35:20;;;;;;;19.07;10.60;;;19.50;99.90;;;;;;5029103;28;20179;-69
2023/06/06 08:37:48;;;;;;;14.87;10.60;;;19.60;99.90;;;;;;5028969;28;20238;-70
2023/06/06 08:40:14;;;;;;;14.40;11.73;;;19.70;99.90;;;;;;5029308;28;20181;-69
2023/06/06 08:42:44;;;;;;;13.97;10.40;;;19.80;99.90;;;;;;5028484;28;20500;-69
2023/06/06 08:45:10;;;;;;;14.93;9.63;;;19.90;99.90;;;;;;5029063;28;20173;-69
2023/06/06 08:47:37;;;;;;;14.77;11.67;;;20.00;99.90;;;;;;5029121;28;20771;-69
2023/06/06 08:50:07;;;;;;;13.97;11.23;;;20.00;99.90;;;;;;5029075;28;20437;-69
2023/06/06 08:52:34;;;;;;;11.80;10.20;;;20.10;99.90;;;;;;5028432;28;20414;-69
2023/06/06 08:55:01;;;;;;;15.03;9.60;;;20.10;99.90;;;;;;5027185;28;20412;-69
2023/06/06 08:57:27;;;;;;;14.33;10.17;;;20.20;99.90;;;;;;5028797;28;20461;-69
2023/06/06 08:59:53;;;;;;;14.90;11.10;;;20.20;99.90;;;;;;5028853;28;20512;-69
2023/06/06 09:02:18;;;;;;;16.57;9.77;;;20.40;99.90;;;;;;5027989;28;20779;-69
2023/06/06 09:04:46;;;;;;;14.43;10.53;;;20.50;99.90;;;;;;5028286;28;20198;-69
2023/06/06 09:07:14;;;;;;;21.30;10.43;;;20.60;99.90;;;;;;5029035;28;20209;-69
2023/06/06 09:09:42;;;;;;;15.70;10.27;;;20.70;99.90;;;;;;5028628;28;20475;-69
2023/06/06 09:12:08;;;;;;;17.00;10.10;;;20.90;99.90;;;;;;5027924;28;20792;-69
2023/06/06 09:14:34;;;;;;;13.13;10.40;;;21.00;99.90;;;;;;5028043;28;20435;-70
2023/06/06 09:17:01;;;;;;;15.27;11.00;;;21.10;99.90;;;;;;5028423;28;20457;-69
2023/06/06 09:19:27;;;;;;;12.67;9.80;;;21.20;99.90;;;;;;5028570;28;20272;-70
2023/06/06 09:21:53;;;;;;;14.20;11.13;;;21.40;99.90;;;;;;5027973;28;20576;-69
2023/06/06 09:24:19;;;;;;;17.63;10.77;;;21.40;99.90;;;;;;5028222;28;20178;-70
2023/06/06 09:26:45;;;;;;;16.43;9.10;;;21.50;99.90;;;;;;5028488;28;20429;-69
2023/06/06 09:29:14;;;;;;;9.50;8.50;;;21.60;99.90;;;;;;5046197;28;20577;-70
2023/06/06 09:31:41;;;;;;;13.20;9.17;;;21.70;99.90;;;;;;5034074;28;20312;-69
2023/06/06 09:34:10;;;;;;;11.73;9.77;;;21.80;99.90;;;;;;5027978;28;20425;-69
2023/06/06 09:36:43;;;;;;;10.33;8.00;;;21.80;99.90;;;;;;5028320;28;20469;-70
2023/06/06 09:39:09;;;;;;;10.97;8.67;;;21.90;99.90;;;;;;5028196;28;20439;-69
2023/06/06 09:41:42;;;;;;;14.03;8.50;;;22.00;99.90;;;;;;5027808;28;20413;-70
2023/06/06 09:44:28;;;;;;;11.77;7.50;;;22.00;99.90;;;;;;5027922;28;20183;-70
2023/06/06 09:47:02;;;;;;;11.20;8.73;;;22.10;99.90;;;;;;5028276;28;20486;-69
2023/06/06 09:49:32;;;;;;;9.53;8.00;;;22.20;99.90;;;;;;5028252;28;20436;-69
2023/06/06 09:51:58;;;;;;;9.00;7.47;;;22.30;99.90;;;;;;5031320;28;20421;-70
2023/06/06 09:54:24;;;;;;;15.00;8.60;;;22.40;99.90;;;;;;5029956;28;20427;-70
2023/06/06 09:56:51;;;;;;;13.80;8.13;;;22.50;99.90;;;;;;5031785;28;20679;-70
2023/06/06 09:59:20;;;;;;;12.87;9.10;;;22.60;99.90;;;;;;5032002;28;20186;-69
2023/06/06 10:01:50;;;;;;;13.77;9.13;;;22.60;99.90;;;;;;5029983;28;20921;-70
2023/06/06 10:04:16;;;;;;;10.83;8.60;;;22.70;99.90;;;;;;5031415;28;20410;-70
2023/06/06 10:06:46;;;;;;;14.10;7.90;;;22.80;99.90;;;;;;5031611;28;20428;-69
2023/06/06 10:09:12;;;;;;;9.83;8.57;;;22.80;99.90;;;;;;5031714;28;20447;-70
2023/06/06 10:11:40;;;;;;;10.50;8.97;;;22.90;99.90;;;;;;5028874;28;20424;-69
2023/06/06 10:14:06;;;;;;;8.00;7.00;;;23.00;99.90;;;;;;5031300;28;20436;-70
2023/06/06 10:16:35;;;;;;;9.20;7.87;;;23.10;99.90;;;;;;5031471;28;20471;-70
2023/06/06 10:19:01;;;;;;;9.37;7.37;;;23.10;99.90;;;;;;5031724;28;20468;-70
2023/06/06 10:21:28;;;;;;;9.40;7.10;;;23.20;99.90;;;;;;5030891;28;20459;-70
2023/06/06 10:23:54;;;;;;;12.87;7.80;;;23.30;99.90;;;;;;5031005;28;20421;-70
2023/06/06 10:26:31;;;;;;;11.07;8.90;;;23.40;99.90;;;;;;5031372;28;20471;-70
2023/06/06 10:29:05;;;;;;;9.00;8.10;;;23.50;99.90;;;;;;5047460;28;20185;-70
2023/06/06 10:31:54;;;;;;;13.37;7.70;;;23.50;99.90;;;;;;5038050;28;20421;-70
2023/06/06 10:34:37;;;;;;;9.67;7.07;;;23.60;99.90;;;;;;5027940;28;20507;-70
2023/06/06 10:37:17;;;;;;;12.70;7.73;;;23.60;99.90;;;;;;5027925;28;20830;-69
2023/06/06 10:39:47;;;;;;;11.47;8.47;;;23.80;99.90;;;;;;5029007;28;20492;-70
2023/06/06 10:42:13;;;;;;;11.60;7.23;;;23.80;99.90;;;;;;5018875;28;20461;-70
2023/06/06 10:44:45;;;;;;;10.10;7.50;;;23.90;99.90;;;;;;5030397;28;20975;-69
2023/06/06 10:47:30;;;;;;;13.23;7.10;;;23.80;99.40;;;;;;5030748;28;20460;-69
2023/06/06 10:50:11;;;;;;;10.33;7.90;;;23.70;99.90;;;;;;5023192;28;20409;-70
2023/06/06 10:52:45;;;;;;;11.07;6.93;;;23.60;99.90;;;;;;5029845;28;20421;-70
2023/06/06 10:55:15;;;;;;;9.30;7.37;;;23.60;99.90;;;;;;5028780;28;20425;-69
2023/06/06 10:57:50;;;;;;;8.90;6.83;;;23.80;99.90;;;;;;5030384;28;20968;-70
2023/06/06 11:00:17;;;;;;;12.63;7.97;;;23.90;99.90;;;;;;5030451;28;20421;-69
2023/06/06 11:02:45;;;;;;;11.83;7.93;;;24.00;99.70;;;;;;5028514;28;20419;-70
2023/06/06 11:05:10;;;;;;;11.93;7.13;;;24.00;98.00;;;;;;5030161;28;20989;-70
2023/06/06 11:07:36;;;;;;;7.73;6.93;;;24.10;98.70;;;;;;5030161;28;20524;-69
2023/06/06 11:10:02;;;;;;;9.33;8.00;;;24.10;98.90;;;;;;5030188;28;20679;-69
2023/06/06 11:12:28;;;;;;;9.90;7.10;;;24.20;98.00;;;;;;5028412;28;20209;-70
2023/06/06 11:14:58;;;;;;;8.87;7.07;;;24.30;97.40;;;;;;5029932;28;20413;-70
2023/06/06 11:17:27;;;;;;;9.87;7.67;;;24.40;97.70;;;;;;5030093;28;20489;-70
2023/06/06 11:19:56;;;;;;;10.53;6.97;;;24.50;98.50;;;;;;5024656;28;20496;-70
2023/06/06 11:22:26;;;;;;;11.73;7.20;;;24.40;97.00;;;;;;5029407;28;20788;-70
2023/06/06 11:24:55;;;;;;;8.13;6.47;;;24.40;98.10;;;;;;5029711;28;20428;-70
2023/06/06 11:27:22;;;;;;;9.50;7.97;;;24.30;97.50;;;;;;5032723;28;20436;-70
2023/06/06 11:29:47;;;;;;;9.23;7.27;;;24.20;96.00;;;;;;5030395;28;20956;-69
2023/06/06 11:32:14;;;;;;;9.53;6.77;;;24.20;96.50;;;;;;5029286;28;20624;-69
2023/06/06 11:34:41;;;;;;;9.10;6.70;;;24.20;97.10;;;;;;5029452;28;20934;-69
2023/06/06 11:37:08;;;;;;;7.90;6.37;;;24.20;96.50;;;;;;5029503;28;20503;-70
2023/06/06 11:39:35;;;;;;;8.17;6.23;;;24.30;96.30;;;;;;5026187;28;20945;-70
2023/06/06 11:42:00;;;;;;;8.83;5.90;;;24.40;95.60;;;;;;5028957;28;20417;-70
2023/06/06 11:44:35;;;;;;;11.23;7.50;;;24.50;97.40;;;;;;5029353;28;20460;-70
2023/06/06 11:47:03;;;;;;;8.17;6.60;;;24.70;98.60;;;;;;5022698;28;20214;-69
2023/06/06 11:49:41;;;;;;;7.83;6.40;;;24.80;97.00;;;;;;5030074;28;20837;-70
2023/06/06 11:52:07;;;;;;;7.53;6.10;;;24.90;97.10;;;;;;5029194;28;20420;-70
2023/06/06 11:54:33;;;;;;;10.00;7.20;;;25.00;96.00;;;;;;5028055;28;20504;-70
2023/06/06 11:57:03;;;;;;;7.40;5.90;;;25.00;96.40;;;;;;5029625;28;21019;-69
2023/06/06 11:59:29;;;;;;;9.13;6.57;;;25.00;96.20;;;;;;5029820;28;20551;-70
2023/06/06 12:01:56;;;;;;;7.87;5.67;;;25.10;94.90;;;;;;5028945;28;20816;-70
2023/06/06 12:04:26;;;;;;;9.13;5.70;;;25.10;95.10;;;;;;5029469;28;20547;-70
2023/06/06 12:06:56;;;;;;;12.60;5.93;;;25.10;94.50;;;;;;5029540;28;20709;-70
2023/06/06 12:09:24;;;;;;;8.83;6.90;;;25.10;94.30;;;;;;5028370;28;20456;-70
2023/06/06 12:11:56;;;;;;;8.73;6.77;;;25.00;93.00;;;;;;5027016;28;20424;-69
2023/06/06 12:14:23;;;;;;;6.53;5.77;;;24.90;93.70;;;;;;5028492;28;20413;-70
2023/06/06 12:16:50;;;;;;;8.33;5.40;;;24.90;93.50;;;;;;5029181;28;20538;-70
2023/06/06 12:19:16;;;;;;;6.60;5.60;;;24.80;93.10;;;;;;5029451;28;20416;-69
2023/06/06 12:21:51;;;;;;;6.10;5.50;;;24.80;94.00;;;;;;5027380;28;20504;-70
2023/06/06 12:24:22;;;;;;;7.40;6.37;;;24.90;95.00;;;;;;5028808;28;20416;-70
2023/06/06 12:26:59;;;;;;;6.37;5.23;;;24.90;94.40;;;;;;5029174;28;20453;-69
2023/06/06 12:29:30;;;;;;;5.67;5.17;;;24.90;93.40;;;;;;5009385;28;20422;-69
2023/06/06 12:32:16;;;;;;;6.70;5.90;;;24.90;92.40;;;;;;5024588;28;20421;-70
2023/06/06 12:34:43;;;;;;;10.53;6.27;;;24.90;93.60;;;;;;5028879;28;20524;-70
2023/06/06 12:37:10;;;;;;;7.60;5.60;;;24.90;94.00;;;;;;5028939;28;20456;-70
2023/06/06 12:39:40;;;;;;;6.73;5.20;;;25.00;94.50;;;;;;5029106;28;20926;-70
2023/06/06 12:42:19;;;;;;;8.00;5.97;;;25.00;93.90;;;;;;5028249;28;20473;-70